Time;durP1;ratioP1;P1;durP2;ratioP2;P2;SDS_P1;SDS_P2;PMS_P1;PMS_P2;Temp;Humidity;BMP_temperature;BMP_pressure;BME280_temperature;BME280_humidity;BME280_pressure;Samples;Min_cycle;Max_cycle;Signal;HPM_P1;HPM_P2
2022/04/27 00:00:36;;;;;;;2.50;2.30;;;;;;;8.58;83.14;99503.98;1723853;82;21412;-74
2022/04/27 00:03:04;;;;;;;3.70;2.75;;;;;;;8.54;83.31;99508.44;1723915;83;21050;-74
2022/04/27 00:05:32;;;;;;;3.40;2.90;;;;;;;8.52;83.44;99508.06;1724255;82;22419;-74
2022/04/27 00:08:00;;;;;;;2.98;2.75;;;;;;;8.50;83.53;99509.41;1759683;81;21159;-74
2022/04/27 00:10:26;;;;;;;3.40;3.10;;;;;;;8.47;83.72;99518.69;1759707;81;21077;-74
2022/04/27 00:12:55;;;;;;;3.85;2.83;;;;;;;8.45;83.88;99517.84;1729665;82;22230;-74
2022/04/27 00:15:23;;;;;;;4.17;3.17;;;;;;;8.45;83.96;99516.53;1759672;81;21506;-74
2022/04/27 00:17:50;;;;;;;4.12;3.17;;;;;;;8.46;84.04;99523.52;1723690;83;21170;-74
2022/04/27 00:20:16;;;;;;;3.20;2.90;;;;;;;8.44;84.18;99521.81;1758294;81;21136;-74
2022/04/27 00:22:43;;;;;;;6.20;3.05;;;;;;;8.41;84.29;99522.74;1757227;81;21099;-74
2022/04/27 00:25:10;;;;;;;3.72;3.20;;;;;;;8.38;84.45;99522.35;1730711;82;21098;-74
2022/04/27 00:27:37;;;;;;;4.83;2.98;;;;;;;8.35;84.58;99518.95;1757310;81;21050;-74
2022/04/27 00:30:05;;;;;;;3.42;3.20;;;;;;;8.33;84.70;99524.70;1721598;83;21118;-74
2022/04/27 00:32:34;;;;;;;3.45;3.12;;;;;;;8.30;84.83;99522.14;1721401;83;21046;-73
2022/04/27 00:35:01;;;;;;;3.27;2.98;;;;;;;8.27;84.87;99520.48;1721193;83;21113;-74
2022/04/27 00:37:29;;;;;;;4.00;3.20;;;;;;;8.27;84.89;99528.77;1721708;83;21532;-74
2022/04/27 00:39:56;;;;;;;3.40;3.12;;;;;;;8.25;84.93;99522.71;1720963;83;21770;-74
2022/04/27 00:42:24;;;;;;;3.92;3.62;;;;;;;8.23;85.04;99529.76;1721600;83;21046;-74
2022/04/27 00:44:51;;;;;;;2.98;2.77;;;;;;;8.21;85.06;99536.80;1721541;83;21264;-73
2022/04/27 00:47:19;;;;;;;3.47;3.27;;;;;;;8.17;85.08;99543.43;1721379;83;21185;-74
2022/04/27 00:49:49;;;;;;;4.60;3.33;;;;;;;8.14;85.23;99549.20;1721391;83;21129;-75
2022/04/27 00:52:17;;;;;;;4.28;2.87;;;;;;;8.11;85.33;99551.42;1720988;83;21609;-74
2022/04/27 00:54:52;;;;;;;3.25;2.95;;;;;;;8.09;85.35;99551.92;1721195;83;20992;-74
2022/04/27 00:57:19;;;;;;;3.50;3.20;;;;;;;8.08;85.35;99552.80;1720419;83;21163;-74
2022/04/27 00:59:47;;;;;;;4.08;3.08;;;;;;;8.08;85.38;99558.05;1721607;83;21063;-74
2022/04/27 01:02:16;;;;;;;3.10;2.90;;;;;;;8.07;85.41;99563.32;1718142;83;21889;-75
2022/04/27 01:04:44;;;;;;;4.67;3.00;;;;;;;8.07;85.43;99569.88;1707746;83;21000;-74
2022/04/27 01:07:14;;;;;;;4.08;2.95;;;;;;;8.06;85.36;99570.33;1755804;81;21022;-75
2022/04/27 01:09:40;;;;;;;3.12;2.83;;;;;;;8.06;85.29;99562.47;1755874;81;21652;-74
2022/04/27 01:12:10;;;;;;;6.90;2.90;;;;;;;8.07;85.24;99558.97;1755716;81;21067;-74
2022/04/27 01:14:45;;;;;;;8.37;3.30;;;;;;;8.08;85.20;99569.84;1754979;81;21027;-73
2022/04/27 01:17:11;;;;;;;4.15;3.65;;;;;;;8.10;85.19;99568.50;1755637;81;21590;-74
2022/04/27 01:19:38;;;;;;;6.28;4.22;;;;;;;8.08;85.18;99567.22;1755684;81;21622;-73
2022/04/27 01:22:07;;;;;;;8.28;3.77;;;;;;;8.07;85.14;99569.45;1755903;81;22277;-74
2022/04/27 01:24:36;;;;;;;4.97;3.95;;;;;;;8.09;85.13;99569.41;1755693;81;21082;-74
2022/04/27 01:27:04;;;;;;;6.25;4.10;;;;;;;8.10;85.13;99570.69;1755432;81;21058;-74
2022/04/27 01:29:31;;;;;;;4.90;3.47;;;;;;;8.09;85.08;99576.81;1731884;81;21059;-74
2022/04/27 01:32:00;;;;;;;3.70;3.27;;;;;;;8.08;85.00;99575.08;1755514;81;22397;-74
2022/04/27 01:34:27;;;;;;;3.47;3.05;;;;;;;8.10;84.91;99574.63;1755924;81;21238;-74
2022/04/27 01:36:55;;;;;;;4.80;3.27;;;;;;;8.11;84.84;99582.87;1755283;81;21597;-74
2022/04/27 01:39:25;;;;;;;3.77;3.42;;;;;;;8.11;84.93;99578.09;1755779;81;21039;-75
2022/04/27 01:41:52;;;;;;;4.20;2.92;;;;;;;8.09;84.99;99575.50;1755597;81;21079;-74
2022/04/27 01:44:19;;;;;;;4.20;3.00;;;;;;;8.09;85.07;99574.66;1755723;81;21127;-74
2022/04/27 01:46:46;;;;;;;3.77;3.05;;;;;;;8.08;85.10;99575.08;1755791;81;21169;-75
2022/04/27 01:49:13;;;;;;;3.20;2.95;;;;;;;8.07;85.14;99581.66;1755923;81;21071;-74
2022/04/27 01:54:25;;;;;;;5.40;3.08;;;;;;;8.06;85.29;99575.58;1755814;81;21000;-74
2022/04/27 01:56:52;;;;;;;3.40;3.20;;;;;;;8.05;85.34;99579.08;1755410;81;21110;-74
2022/04/27 01:59:19;;;;;;;3.50;3.10;;;;;;;8.02;85.40;99581.80;1731901;81;21148;-75
2022/04/27 02:01:47;;;;;;;3.60;3.30;;;;;;;7.99;85.50;99572.23;1755666;81;22214;-74
2022/04/27 02:04:14;;;;;;;6.03;2.85;;;;;;;8.01;85.61;99578.75;1755546;81;21117;-74
2022/04/27 02:06:42;;;;;;;3.52;3.22;;;;;;;8.00;85.61;99577.02;1755709;81;22293;-74
2022/04/27 02:09:12;;;;;;;4.37;3.20;;;;;;;7.99;85.71;99581.86;1755758;81;21502;-74
2022/04/27 02:11:43;;;;;;;3.45;3.15;;;;;;;7.96;85.72;99583.23;1754518;81;21174;-74
2022/04/27 02:14:11;;;;;;;5.47;3.30;;;;;;;7.97;85.68;99587.59;1755866;81;21022;-74
2022/04/27 02:16:40;;;;;;;4.33;3.52;;;;;;;7.96;85.82;99585.86;1756024;81;21047;-74
2022/04/27 02:19:13;;;;;;;5.97;3.35;;;;;;;7.95;85.90;99590.67;1754436;81;20995;-74
2022/04/27 02:21:42;;;;;;;3.50;3.20;;;;;;;7.93;85.85;99592.47;1753243;81;21055;-74
2022/04/27 02:24:11;;;;;;;3.87;3.33;;;;;;;7.91;85.83;99591.66;1752483;81;21984;-74
2022/04/27 02:26:38;;;;;;;3.20;3.00;;;;;;;7.88;85.87;99583.39;1752569;81;21004;-74
2022/04/27 02:29:05;;;;;;;3.37;3.00;;;;;;;7.87;85.93;99588.67;1752767;81;20988;-75
2022/04/27 02:31:34;;;;;;;3.75;3.30;;;;;;;7.85;85.95;99600.52;1752747;81;21115;-74
2022/04/27 02:34:02;;;;;;;3.52;3.20;;;;;;;7.84;85.92;99587.45;1752634;81;21565;-74
2022/04/27 02:36:29;;;;;;;6.42;3.42;;;;;;;7.84;85.97;99595.31;1725143;81;22013;-75
2022/04/27 02:38:56;;;;;;;6.70;3.40;;;;;;;7.80;85.96;99594.06;1752678;81;21561;-74
2022/04/27 02:41:24;;;;;;;3.85;3.35;;;;;;;7.79;85.96;99594.95;1752535;81;21569;-74
2022/04/27 02:43:51;;;;;;;4.67;3.22;;;;;;;7.77;85.98;99596.75;1752635;81;21716;-74
2022/04/27 02:46:19;;;;;;;3.75;3.40;;;;;;;7.75;85.94;99593.30;1752426;81;21161;-74
2022/04/27 02:51:51;;;;;;;3.35;3.10;;;;;;;7.70;85.96;99597.78;1752363;81;21604;-75
2022/04/27 02:54:32;;;;;;;5.40;3.67;;;;;;;7.68;85.92;99598.23;1747427;81;21079;-74
2022/04/27 02:57:00;;;;;;;5.17;3.80;;;;;;;7.64;85.99;99603.14;1752848;81;21059;-74
2022/04/27 02:59:28;;;;;;;4.60;3.50;;;;;;;7.60;86.00;99606.28;1725034;81;23110;-75
2022/04/27 03:01:56;;;;;;;5.22;3.12;;;;;;;7.57;86.07;99605.48;1753629;81;21138;-74
2022/04/27 03:04:23;;;;;;;4.95;3.22;;;;;;;7.55;86.12;99611.20;1745084;81;21075;-74
2022/04/27 03:06:51;;;;;;;3.33;3.02;;;;;;;7.54;86.07;99609.47;1725438;83;21024;-74
2022/04/27 03:09:18;;;;;;;3.33;3.00;;;;;;;7.52;86.11;99613.88;1725367;83;21138;-74
2022/04/27 03:11:45;;;;;;;3.50;3.20;;;;;;;7.49;86.13;99613.48;1725868;83;21001;-74
2022/04/27 03:14:15;;;;;;;9.93;3.37;;;;;;;7.49;86.08;99617.87;1720193;83;21062;-74
2022/04/27 03:16:44;;;;;;;3.75;3.50;;;;;;;7.48;86.04;99623.56;1725580;82;21051;-75
2022/04/27 03:19:12;;;;;;;7.08;3.00;;;;;;;7.46;86.02;99624.47;1708879;83;21070;-74
2022/04/27 03:21:38;;;;;;;3.85;3.30;;;;;;;7.43;86.01;99627.57;1725474;80;21056;-74
2022/04/27 03:24:07;;;;;;;3.90;3.60;;;;;;;7.42;85.88;99625.83;1725553;83;21704;-74
2022/04/27 03:26:33;;;;;;;4.53;3.60;;;;;;;7.41;85.79;99629.36;1725695;82;21127;-74
2022/04/27 03:29:03;;;;;;;5.92;3.40;;;;;;;7.38;85.69;99629.84;1725507;83;21993;-75
2022/04/27 03:31:32;;;;;;;4.05;3.70;;;;;;;7.36;85.64;99637.75;1726006;82;21082;-74
2022/04/27 03:33:59;;;;;;;3.65;3.25;;;;;;;7.35;85.60;99643.87;1725516;83;21530;-74
2022/04/27 03:36:28;;;;;;;3.47;3.25;;;;;;;7.33;85.51;99641.73;1725584;83;21106;-74
2022/04/27 03:38:56;;;;;;;4.08;3.52;;;;;;;7.31;85.59;99639.57;1709268;83;21048;-73
2022/04/27 03:41:26;;;;;;;3.40;3.20;;;;;;;7.28;85.66;99646.20;1725362;82;21118;-73
2022/04/27 03:43:53;;;;;;;4.53;3.65;;;;;;;7.29;85.68;99650.52;1725503;83;21046;-74
2022/04/27 03:46:20;;;;;;;3.70;3.40;;;;;;;7.27;85.63;99648.39;1725593;83;21008;-74
2022/04/27 03:48:48;;;;;;;3.98;3.58;;;;;;;7.26;85.71;99654.50;1725915;83;21582;-74
2022/04/27 03:51:15;;;;;;;3.62;3.33;;;;;;;7.26;85.72;99650.57;1725645;83;21456;-73
2022/04/27 03:53:44;;;;;;;4.58;3.85;;;;;;;7.28;85.60;99657.97;1725337;82;22245;-74
2022/04/27 03:56:12;;;;;;;5.97;4.00;;;;;;;7.28;85.47;99655.36;1725511;83;21565;-74
2022/04/27 03:58:38;;;;;;;5.05;3.42;;;;;;;7.29;85.43;99655.75;1725534;83;21507;-74
2022/04/27 04:01:08;;;;;;;5.60;3.50;;;;;;;7.30;85.46;99661.42;1709114;83;21090;-74
2022/04/27 04:03:35;;;;;;;3.55;3.25;;;;;;;7.34;85.41;99663.07;1708921;83;21559;-75
2022/04/27 04:06:02;;;;;;;7.17;3.70;;;;;;;7.40;85.32;99666.89;1725280;83;21357;-74
2022/04/27 04:08:39;;;;;;;3.90;3.50;;;;;;;7.43;85.11;99668.14;1725017;82;21324;-74
2022/04/27 04:11:10;;;;;;;3.65;3.33;;;;;;;7.48;84.77;99665.87;1725726;83;21042;-73
2022/04/27 04:13:47;;;;;;;5.62;3.47;;;;;;;7.53;84.56;99669.26;1681143;85;21097;-74
2022/04/27 04:16:17;;;;;;;6.10;4.20;;;;;;;7.58;84.39;99674.84;1725327;82;21821;-74
2022/04/27 04:19:04;;;;;;;3.72;3.42;;;;;;;7.63;84.07;99676.03;1681544;85;21116;-74
2022/04/27 04:21:41;;;;;;;4.40;3.75;;;;;;;7.67;83.90;99680.34;1654008;86;21104;-74
2022/04/27 04:24:11;;;;;;;5.87;3.87;;;;;;;7.73;83.25;99678.91;1659077;85;21137;-74
2022/04/27 04:29:31;;;;;;;4.10;3.70;;;;;;;7.81;83.34;99678.28;1689764;84;21203;-74
2022/04/27 04:31:57;;;;;;;7.95;3.95;;;;;;;7.90;83.15;99675.94;1697138;84;21618;-74
2022/04/27 04:34:38;;;;;;;4.55;3.60;;;;;;;7.99;82.80;99681.42;1696058;84;21091;-74
2022/04/27 04:37:06;;;;;;;4.92;3.83;;;;;;;8.10;82.85;99673.31;1696565;84;21606;-74
2022/04/27 04:39:34;;;;;;;4.80;3.77;;;;;;;8.19;82.27;99683.16;1696904;84;21044;-74
2022/04/27 04:42:01;;;;;;;3.90;3.45;;;;;;;8.29;81.62;99684.28;1697298;84;21135;-74
2022/04/27 04:44:29;;;;;;;3.92;3.33;;;;;;;8.39;81.67;99683.17;1697066;84;21037;-74
2022/04/27 04:47:05;;;;;;;3.50;3.30;;;;;;;8.51;80.59;99685.98;1696453;84;21041;-74
2022/04/27 04:49:34;;;;;;;3.98;3.58;;;;;;;8.59;80.28;99684.48;1694956;84;21083;-74
2022/04/27 04:52:07;;;;;;;6.05;3.27;;;;;;;8.68;79.89;99694.77;1696306;84;21627;-74
2022/04/27 04:54:45;;;;;;;4.58;3.62;;;;;;;8.77;79.20;99689.28;1637318;87;21295;-74
2022/04/27 04:57:30;;;;;;;3.47;3.15;;;;;;;8.88;78.66;99682.02;1696677;84;21072;-75
2022/04/27 05:00:16;;;;;;;6.30;4.30;;;;;;;9.01;78.01;99689.56;1697239;84;21246;-74
2022/04/27 05:03:00;;;;;;;12.07;7.60;;;;;;;9.13;77.78;99691.90;1694801;84;21520;-74
2022/04/27 05:05:45;;;;;;;4.37;4.03;;;;;;;9.23;76.64;99696.00;1690990;83;21021;-74
2022/04/27 05:08:20;;;;;;;;;;;;;;;9.30;76.27;99698.02;1703754;84;21178;-75
2022/04/27 05:10:54;;;;;;;3.58;3.25;;;;;;;9.39;74.85;99702.16;1675607;84;20201;-74
2022/04/27 05:13:37;;;;;;;3.52;3.22;;;;;;;9.44;75.01;99697.64;1668235;84;21067;-75
2022/04/27 05:16:20;;;;;;;3.85;3.55;;;;;;;9.55;75.08;99707.41;1703009;84;21077;-75
2022/04/27 05:18:53;;;;;;;3.95;3.35;;;;;;;9.71;74.28;99706.98;1705674;84;21102;-74
2022/04/27 05:21:21;;;;;;;4.62;3.70;;;;;;;9.81;73.67;99702.72;1710504;81;21838;-74
2022/04/27 05:24:07;;;;;;;3.95;3.10;;;;;;;9.95;74.03;99708.92;1732367;82;21058;-75
2022/04/27 05:26:47;;;;;;;7.53;3.80;;;;;;;10.06;71.97;99706.43;1730564;82;21105;-74
2022/04/27 05:32:10;;;;;;;3.90;3.60;;;;;;;10.21;70.36;99717.80;1701757;82;21482;-74
2022/04/27 05:34:48;;;;;;;5.78;4.37;;;;;;;10.29;71.43;99719.75;1729911;82;21152;-74
2022/04/27 05:37:17;;;;;;;3.37;3.08;;;;;;;10.37;70.26;99721.73;1722045;82;21931;-75
2022/04/27 05:40:03;;;;;;;;;;;;;;;10.48;69.97;99714.81;1734756;82;22295;-74
2022/04/27 05:42:32;;;;;;;4.70;3.37;;;;;;;10.62;69.45;99723.58;1729300;82;20220;-75
2022/04/27 05:45:09;;;;;;;3.80;3.50;;;;;;;10.66;68.35;99725.22;1730182;82;21066;-74
2022/04/27 05:47:40;;;;;;;5.05;3.65;;;;;;;10.73;69.74;99722.80;1731302;82;21268;-75
2022/04/27 05:50:26;;;;;;;;;;;;;;;10.78;68.73;99722.19;1734790;82;21055;-74
2022/04/27 05:53:01;;;;;;;5.03;3.60;;;;;;;10.83;67.81;99727.78;1729235;82;20218;-74
2022/04/27 05:55:47;;;;;;;3.85;3.55;;;;;;;10.89;68.06;99730.19;1732521;82;21086;-74
2022/04/27 05:58:25;;;;;;;3.83;3.42;;;;;;;10.95;67.86;99736.12;1653532;86;21697;-75
2022/04/27 06:01:00;;;;;;;4.45;3.72;;;;;;;10.99;68.38;99727.66;1729735;82;21144;-73
2022/04/27 06:03:34;;;;;;;3.95;3.58;;;;;;;11.08;67.54;99727.37;1731909;82;21031;-74
2022/04/27 06:06:03;;;;;;;3.58;3.27;;;;;;;11.15;68.07;99731.51;1731861;82;21607;-74
2022/04/27 06:08:31;;;;;;;4.67;3.62;;;;;;;11.25;67.52;99735.17;1732024;82;21572;-74
2022/04/27 06:11:02;;;;;;;4.97;3.98;;;;;;;11.32;65.67;99740.63;1731802;82;21023;-74
2022/04/27 06:13:31;;;;;;;4.03;3.62;;;;;;;11.32;65.98;99745.89;1703320;82;21745;-74
2022/04/27 06:16:15;;;;;;;4.47;4.08;;;;;;;11.36;66.48;99751.45;1702120;82;21059;-75
2022/04/27 06:18:48;;;;;;;4.12;3.55;;;;;;;11.39;65.49;99747.39;1730908;82;21018;-74
2022/04/27 06:21:14;;;;;;;6.12;3.55;;;;;;;11.47;66.97;99747.14;1732574;82;21195;-73
2022/04/27 06:23:42;;;;;;;3.45;3.22;;;;;;;11.61;64.48;99763.32;1741243;82;21091;-74
2022/04/27 06:26:10;;;;;;;4.00;3.60;;;;;;;11.66;64.62;99757.89;1743633;82;21868;-75
2022/04/27 06:28:40;;;;;;;4.37;3.25;;;;;;;11.67;64.64;99764.43;1743079;82;20969;-74
2022/04/27 06:31:07;;;;;;;6.85;3.35;;;;;;;11.72;64.65;99757.69;1743350;82;21027;-74
2022/04/27 06:33:34;;;;;;;3.47;3.20;;;;;;;11.79;64.43;99759.19;1743412;82;21178;-74
2022/04/27 06:36:01;;;;;;;3.58;3.27;;;;;;;11.90;63.48;99762.30;1743699;82;21102;-74
2022/04/27 06:38:29;;;;;;;3.90;3.50;;;;;;;11.99;63.41;99765.09;1744024;82;21503;-74
2022/04/27 06:40:59;;;;;;;4.42;3.02;;;;;;;12.07;63.96;99763.50;1743508;82;21568;-74
2022/04/27 06:43:28;;;;;;;4.70;3.05;;;;;;;12.14;63.88;99768.95;1742739;82;21007;-75
2022/04/27 06:46:16;;;;;;;3.15;2.90;;;;;;;12.16;62.79;99765.78;1653870;86;21040;-74
2022/04/27 06:49:01;;;;;;;3.25;3.05;;;;;;;12.18;63.40;99771.86;1653725;86;21979;-73
2022/04/27 06:51:46;;;;;;;5.70;3.12;;;;;;;12.29;61.45;99778.51;1708242;82;22070;-75
2022/04/27 06:54:31;;;;;;;3.80;2.92;;;;;;;12.28;61.07;99775.48;1743846;82;21091;-75
2022/04/27 06:57:16;;;;;;;3.70;3.10;;;;;;;12.32;62.67;99775.77;1743615;82;21095;-75
2022/04/27 06:59:46;;;;;;;3.30;3.05;;;;;;;12.40;59.81;99784.25;1742707;82;21028;-73
2022/04/27 07:02:13;;;;;;;3.37;3.02;;;;;;;12.36;59.80;99797.17;1748973;81;21041;-74
2022/04/27 07:04:44;;;;;;;3.12;2.80;;;;;;;12.34;60.72;99793.70;1752420;80;21108;-73
2022/04/27 07:07:12;;;;;;;3.67;3.02;;;;;;;12.38;60.76;99794.02;1749365;81;21134;-73
2022/04/27 07:09:39;;;;;;;3.25;3.02;;;;;;;12.44;60.01;99799.92;1695486;82;21102;-73
2022/04/27 07:12:08;;;;;;;4.03;3.50;;;;;;;12.46;58.55;99809.09;1743524;82;21024;-74
2022/04/27 07:14:35;;;;;;;3.75;2.90;;;;;;;12.39;59.96;99802.31;1744143;82;20988;-73
2022/04/27 07:17:02;;;;;;;3.17;2.87;;;;;;;12.42;59.53;99807.04;1743523;82;21136;-73
2022/04/27 07:19:30;;;;;;;3.47;2.70;;;;;;;12.48;58.36;99801.98;1743458;82;21142;-73
2022/04/27 07:21:59;;;;;;;3.80;2.95;;;;;;;12.56;59.42;99809.15;1743774;82;21047;-74
2022/04/27 07:24:27;;;;;;;4.55;2.70;;;;;;;12.66;58.20;99803.50;1732532;82;21521;-74
2022/04/27 07:26:56;;;;;;;3.10;2.90;;;;;;;12.73;58.46;99804.54;1732017;82;21010;-73
2022/04/27 07:29:23;;;;;;;3.17;2.98;;;;;;;12.79;58.53;99804.75;1732273;82;21165;-73
2022/04/27 07:31:50;;;;;;;3.10;2.80;;;;;;;12.84;57.91;99802.78;1732281;82;21117;-76
2022/04/27 07:34:18;;;;;;;3.33;2.75;;;;;;;12.89;57.73;99814.49;1732274;82;21057;-76
2022/04/27 07:36:45;;;;;;;2.90;2.70;;;;;;;12.90;57.67;99806.52;1732353;82;21030;-74
2022/04/27 07:39:11;;;;;;;2.83;2.62;;;;;;;12.94;56.98;99808.09;1732354;82;21058;-74
2022/04/27 07:41:39;;;;;;;3.60;2.50;;;;;;;13.00;56.54;99807.86;1732248;82;21504;-73
2022/04/27 07:44:07;;;;;;;5.12;2.42;;;;;;;13.08;56.80;99810.65;1732452;82;21671;-73
2022/04/27 07:46:34;;;;;;;3.05;2.85;;;;;;;13.12;58.57;99807.83;1732380;82;21587;-73
2022/04/27 07:49:02;;;;;;;4.33;2.90;;;;;;;13.19;58.28;99809.77;1731993;82;21062;-73
2022/04/27 07:51:28;;;;;;;2.60;2.42;;;;;;;13.27;57.54;99812.11;1732558;82;21474;-75
2022/04/27 07:53:55;;;;;;;2.62;2.45;;;;;;;13.29;58.04;99815.54;1732059;82;21187;-75
2022/04/27 07:56:22;;;;;;;2.80;2.50;;;;;;;13.32;57.24;99822.91;1732138;82;20971;-74
2022/04/27 07:58:50;;;;;;;4.00;2.70;;;;;;;13.31;56.72;99815.86;1731907;82;21070;-74
2022/04/27 08:01:16;;;;;;;2.87;2.67;;;;;;;13.36;57.45;99820.55;1731947;82;21105;-76
2022/04/27 08:03:43;;;;;;;3.77;3.20;;;;;;;13.45;56.35;99829.00;1732075;82;21062;-74
2022/04/27 08:06:11;;;;;;;3.00;2.80;;;;;;;13.50;54.84;99833.63;1732204;82;21070;-75
2022/04/27 08:08:39;;;;;;;3.17;2.77;;;;;;;13.41;55.01;99833.55;1732350;82;21054;-74
2022/04/27 08:11:09;;;;;;;3.77;3.47;;;;;;;13.29;55.66;99830.92;1732168;82;21513;-74
2022/04/27 08:13:37;;;;;;;3.47;3.17;;;;;;;13.24;56.33;99838.18;1732395;82;21066;-75
2022/04/27 08:16:11;;;;;;;3.30;2.90;;;;;;;13.24;58.71;99832.89;1732208;82;21567;-74
2022/04/27 08:18:35;;;;;;;2.80;2.60;;;;;;;13.38;57.05;99835.88;1731994;82;21568;-74
2022/04/27 08:21:21;;;;;;;3.75;2.60;;;;;;;13.47;57.29;99828.50;1732287;82;21588;-74
2022/04/27 08:23:46;;;;;;;3.27;2.50;;;;;;;13.57;57.00;99827.19;1731444;82;20995;-74
2022/04/27 08:26:17;;;;;;;2.70;2.50;;;;;;;13.68;55.09;99819.64;1731747;82;21011;-75
2022/04/27 08:28:45;;;;;;;3.15;2.52;;;;;;;13.81;54.59;99827.92;1732144;82;21054;-75
2022/04/27 08:31:14;;;;;;;7.35;2.50;;;;;;;13.94;54.37;99830.91;1732230;82;21282;-75
2022/04/27 08:33:42;;;;;;;7.15;2.72;;;;;;;14.08;54.09;99831.14;1732254;82;21477;-74
2022/04/27 08:36:09;;;;;;;2.80;2.60;;;;;;;14.19;52.72;99847.00;1731747;82;21026;-74
2022/04/27 08:38:37;;;;;;;2.95;2.75;;;;;;;14.20;53.24;99846.09;1731935;82;21049;-74
2022/04/27 08:41:04;;;;;;;2.83;2.62;;;;;;;14.28;53.08;99837.35;1732134;82;21073;-73
2022/04/27 08:43:32;;;;;;;2.70;2.50;;;;;;;14.41;51.89;99851.75;1732381;82;21553;-74
2022/04/27 08:46:03;;;;;;;3.65;2.47;;;;;;;14.50;52.74;99843.38;1731747;82;21042;-73
2022/04/27 08:48:31;;;;;;;4.50;2.62;;;;;;;14.55;50.49;99845.83;1732062;82;21097;-74
2022/04/27 08:51:03;;;;;;;3.98;2.20;;;;;;;14.54;50.90;99837.95;1731932;82;21077;-74
2022/04/27 08:53:32;;;;;;;4.40;2.50;;;;;;;14.64;51.16;99837.95;1731873;82;21073;-75
2022/04/27 08:55:58;;;;;;;2.92;2.55;;;;;;;14.75;50.54;99841.44;1733058;82;21113;-75
2022/04/27 08:58:25;;;;;;;4.83;2.37;;;;;;;14.80;50.64;99839.44;1735464;82;21061;-74
2022/04/27 09:00:52;;;;;;;4.90;2.10;;;;;;;14.88;51.22;99839.05;1735595;82;21176;-75
2022/04/27 09:03:31;;;;;;;4.08;2.10;;;;;;;14.97;48.96;99834.19;1735696;82;21029;-74
2022/04/27 09:06:03;;;;;;;2.50;2.30;;;;;;;15.08;49.27;99846.06;1735835;82;21021;-74
2022/04/27 09:08:45;;;;;;;2.55;2.15;;;;;;;15.15;48.62;99848.35;1733978;82;22169;-76
2022/04/27 09:11:20;;;;;;;3.98;2.25;;;;;;;15.16;46.68;99847.87;1732216;82;21745;-74
2022/04/27 09:14:02;;;;;;;1.95;1.70;;;;;;;15.20;48.11;99845.48;1732059;82;21053;-74
2022/04/27 09:22:11;;;;;;;2.25;2.15;;;;;;;15.33;45.11;99836.45;1731998;82;21109;-75
2022/04/27 09:24:53;;;;;;;2.30;2.10;;;;;;;15.32;46.03;99837.41;1740645;82;21012;-75
2022/04/27 09:27:23;;;;;;;2.17;1.80;;;;;;;15.35;47.00;99834.13;1743779;82;21115;-75
2022/04/27 09:30:01;;;;;;;5.65;1.95;;;;;;;15.47;45.37;99841.94;1743340;82;21138;-75
2022/04/27 09:32:28;;;;;;;5.00;2.00;;;;;;;15.54;44.56;99835.39;1743529;82;21571;-74
2022/04/27 09:35:00;;;;;;;1.67;1.55;;;;;;;15.53;42.96;99836.79;1743810;82;21024;-74
2022/04/27 09:37:27;;;;;;;1.80;1.50;;;;;;;15.45;43.72;99838.96;1743776;82;21043;-74
2022/04/27 09:40:07;;;;;;;1.90;1.80;;;;;;;15.45;43.03;99839.84;1743629;82;21035;-74
2022/04/27 09:42:46;;;;;;;4.70;2.00;;;;;;;15.43;43.28;99843.02;1743203;82;21091;-75
2022/04/27 09:45:15;;;;;;;2.45;1.90;;;;;;;15.41;44.55;99836.94;1743552;82;21878;-73
2022/04/27 09:48:00;;;;;;;5.65;2.35;;;;;;;15.53;44.14;99839.00;1743800;82;21566;-74
2022/04/27 09:50:46;;;;;;;;;;;;;;;15.63;45.67;99834.54;1746194;82;21039;-75
2022/04/27 09:53:14;;;;;;;3.00;2.05;;;;;;;15.76;44.05;99833.02;1726903;82;20193;-75
2022/04/27 09:55:49;;;;;;;1.72;1.62;;;;;;;15.74;43.69;99828.23;1743644;81;21016;-73
2022/04/27 09:58:16;;;;;;;1.67;1.57;;;;;;;15.72;40.85;99828.31;1743021;82;21123;-74
2022/04/27 10:00:43;;;;;;;2.45;1.30;;;;;;;15.72;41.67;99827.46;1743958;82;21268;-73
2022/04/27 10:03:14;;;;;;;1.98;1.30;;;;;;;15.78;43.60;99829.81;1743316;82;20988;-74
2022/04/27 10:05:42;;;;;;;3.27;1.72;;;;;;;16.00;40.59;99832.69;1743486;82;21503;-74
2022/04/27 10:08:10;;;;;;;2.30;2.00;;;;;;;16.16;41.04;99834.94;1743336;82;21005;-74
2022/04/27 10:10:39;;;;;;;1.90;1.80;;;;;;;16.26;42.92;99831.33;1743426;82;21075;-74
2022/04/27 10:13:10;;;;;;;2.02;1.72;;;;;;;16.36;41.98;99820.60;1743850;82;20988;-74
2022/04/27 10:15:46;;;;;;;5.90;1.87;;;;;;;16.38;40.27;99832.48;1743818;82;21551;-73
2022/04/27 10:18:18;;;;;;;2.77;1.62;;;;;;;16.27;40.88;99839.22;1743264;82;21047;-75
2022/04/27 10:20:45;;;;;;;2.45;1.92;;;;;;;16.18;39.99;99831.73;1743790;82;21555;-73
2022/04/27 10:23:24;;;;;;;1.85;1.57;;;;;;;16.16;39.73;99833.61;1743777;82;21067;-75
2022/04/27 10:26:21;;;;;;;3.35;1.90;;;;;;;16.08;39.95;99833.15;1743438;82;21032;-75
2022/04/27 10:28:50;;;;;;;1.57;1.30;;;;;;;16.05;39.94;99830.65;1742637;82;21011;-74
2022/04/27 10:31:47;;;;;;;3.15;1.90;;;;;;;16.03;40.06;99833.38;1743086;82;21066;-75
2022/04/27 10:34:24;;;;;;;2.70;1.60;;;;;;;16.15;40.03;99839.84;1743471;82;21675;-74
2022/04/27 10:36:55;;;;;;;1.50;1.40;;;;;;;16.28;39.87;99831.63;1743626;82;21483;-74
2022/04/27 10:39:28;;;;;;;1.95;1.50;;;;;;;16.38;39.12;99836.46;1743232;82;21098;-74
2022/04/27 10:42:09;;;;;;;1.52;1.42;;;;;;;16.39;38.58;99843.47;1743495;82;21027;-74
2022/04/27 10:44:54;;;;;;;1.98;1.87;;;;;;;16.19;38.05;99830.80;1743798;82;21638;-74
2022/04/27 10:47:22;;;;;;;1.95;1.40;;;;;;;16.09;38.76;99832.23;1743442;82;21161;-74
2022/04/27 10:50:15;;;;;;;2.45;1.50;;;;;;;16.10;38.34;99831.27;1743513;82;21154;-75
2022/04/27 10:52:51;;;;;;;3.10;1.57;;;;;;;16.28;37.51;99841.39;1737350;81;21799;-74
2022/04/27 10:55:41;;;;;;;3.35;1.50;;;;;;;16.46;35.18;99835.58;1749689;81;21068;-75
2022/04/27 10:58:19;;;;;;;1.35;1.25;;;;;;;16.51;36.39;99834.86;1752216;81;21104;-74
2022/04/27 11:01:07;;;;;;;3.33;1.52;;;;;;;16.60;36.11;99847.63;1752315;81;21124;-74
2022/04/27 11:03:36;;;;;;;2.00;1.27;;;;;;;16.47;34.78;99850.08;1752251;81;21127;-74
2022/04/27 11:06:07;;;;;;;2.35;1.30;;;;;;;16.19;35.56;99844.07;1751820;81;21148;-72
2022/04/27 11:08:55;;;;;;;1.55;1.25;;;;;;;16.08;35.29;99846.42;1751477;81;20972;-74
2022/04/27 11:11:26;;;;;;;1.15;1.15;;;;;;;16.05;35.39;99843.92;1742935;82;21629;-74
2022/04/27 11:14:01;;;;;;;1.95;1.47;;;;;;;16.13;37.14;99842.58;1743814;82;21015;-76
2022/04/27 11:16:27;;;;;;;1.22;1.12;;;;;;;16.24;35.78;99845.13;1743808;82;21035;-74
2022/04/27 11:18:56;;;;;;;1.72;1.10;;;;;;;16.38;36.03;99840.44;1743580;82;21617;-74
2022/04/27 11:21:33;;;;;;;1.30;1.20;;;;;;;16.60;35.16;99837.00;1743885;82;21119;-76
2022/04/27 11:23:58;;;;;;;4.12;1.32;;;;;;;16.78;35.51;99835.59;1742215;81;21068;-76
2022/04/27 11:26:26;;;;;;;3.87;1.40;;;;;;;17.00;35.86;99843.29;1743730;82;22266;-74
2022/04/27 11:28:53;;;;;;;2.47;1.45;;;;;;;17.19;34.31;99846.61;1743771;82;21553;-76
2022/04/27 11:31:20;;;;;;;1.52;1.42;;;;;;;17.29;35.40;99838.12;1743693;82;21130;-74
2022/04/27 11:33:47;;;;;;;1.50;1.40;;;;;;;17.39;35.15;99836.16;1743665;82;21005;-74
2022/04/27 11:36:26;;;;;;;2.45;1.25;;;;;;;17.56;35.75;99834.33;1720487;82;21147;-74
2022/04/27 11:38:54;;;;;;;4.62;1.32;;;;;;;17.66;35.57;99835.50;1743775;82;22237;-74
2022/04/27 11:41:23;;;;;;;2.50;1.50;;;;;;;17.68;34.56;99833.59;1743420;82;21519;-74
2022/04/27 11:43:54;;;;;;;2.30;1.35;;;;;;;17.66;34.97;99831.50;1722528;83;21114;-74
2022/04/27 11:46:20;;;;;;;1.35;1.20;;;;;;;17.79;35.74;99827.17;1722749;82;21482;-74
2022/04/27 11:48:49;;;;;;;2.45;1.05;;;;;;;18.01;35.80;99817.94;1722642;83;20995;-74
2022/04/27 11:51:17;;;;;;;1.37;1.25;;;;;;;18.25;33.03;99816.05;1722504;83;21007;-74
2022/04/27 11:53:49;;;;;;;3.42;1.17;;;;;;;18.47;32.57;99824.41;1722474;83;21174;-74
2022/04/27 11:56:18;;;;;;;1.75;1.10;;;;;;;18.65;32.96;99820.22;1722696;82;21102;-74
2022/04/27 11:58:48;;;;;;;0.88;0.88;;;;;;;18.76;31.59;99819.04;1722423;83;21569;-74
2022/04/27 12:01:21;;;;;;;1.20;1.10;;;;;;;18.69;29.86;99814.61;1722562;83;20996;-74
2022/04/27 12:03:49;;;;;;;;;;;;;;;18.70;28.82;99816.79;1725375;83;21078;-74
2022/04/27 12:06:21;;;;;;;1.25;0.90;;;;;;;18.50;30.09;99818.89;1722577;82;20198;-74
2022/04/27 12:08:49;;;;;;;1.15;0.85;;;;;;;18.24;29.14;99816.53;1722910;82;21518;-74
2022/04/27 12:11:26;;;;;;;1.55;0.95;;;;;;;17.93;28.86;99813.06;1722533;83;21671;-74
2022/04/27 12:13:54;;;;;;;4.15;1.20;;;;;;;17.85;29.85;99807.30;1722731;83;21145;-74